createdAt,value
2023-02-24T00:03:11.401Z,98053.16
2023-02-24T00:06:12.095Z,98053.05
2023-02-24T00:09:08.412Z,98038.26
2023-02-24T00:12:08.916Z,98041.02
2023-02-24T00:15:02.992Z,98036.98
2023-02-24T00:17:58.453Z,98036.15
2023-02-24T00:20:56.411Z,98030.55
2023-02-24T00:23:53.534Z,98032.75
2023-02-24T00:26:49.388Z,98025.46
2023-02-24T00:29:47.407Z,98018.55
2023-02-24T00:32:37.511Z,98015.43
2023-02-24T00:35:31.848Z,98014.70
2023-02-24T00:38:25.899Z,98008.73
2023-02-24T00:41:23.866Z,98006.52
2023-02-24T00:44:18.381Z,97998.45
2023-02-24T00:47:14.294Z,97997.73
2023-02-24T00:50:09.719Z,97998.67
2023-02-24T00:53:05.574Z,97996.63
2023-02-24T00:56:07.107Z,97998.23
2023-02-24T00:59:03.076Z,97992.81
2023-02-24T01:01:57.506Z,97990.66
2023-02-24T01:04:52.060Z,97990.31
2023-02-24T01:07:46.941Z,97987.40
2023-02-24T01:10:41.082Z,97984.34
2023-02-24T01:13:35.220Z,97975.24
2023-02-24T01:16:29.365Z,97973.79
2023-02-24T01:19:31.545Z,97974.64
2023-02-24T01:22:27.698Z,97969.95
2023-02-24T01:25:22.513Z,97966.65
2023-02-24T01:28:17.874Z,97960.65
2023-02-24T01:31:12.414Z,97957.02
2023-02-24T01:34:07.045Z,97956.27
2023-02-24T01:37:01.083Z,97953.84
2023-02-24T01:39:55.766Z,97950.75
2023-02-24T01:42:49.921Z,97947.39
2023-02-24T01:45:44.198Z,97945.44
2023-02-24T01:48:38.358Z,97939.75
2023-02-24T01:51:36.978Z,97939.60
2023-02-24T01:54:34.858Z,97933.48
2023-02-24T01:57:34.857Z,97928.48
2023-02-24T02:00:37.851Z,97925.88
2023-02-24T02:03:36.411Z,97925.89
2023-02-24T02:06:31.719Z,97923.49
2023-02-24T02:09:25.915Z,97921.49
2023-02-24T02:12:20.134Z,97917.17
2023-02-24T02:15:20.319Z,97914.69
2023-02-24T02:18:30.345Z,97911.27
2023-02-24T02:22:31.374Z,97908.02
2023-02-24T02:26:03.047Z,97905.18
2023-02-24T02:30:01.073Z,97898.36
2023-02-24T02:33:50.837Z,97899.09
2023-02-24T02:37:07.029Z,97895.24
2023-02-24T02:40:17.233Z,97889.84
2023-02-24T02:43:27.065Z,97884.27
2023-02-24T02:46:35.112Z,97885.30
2023-02-24T02:49:38.973Z,97881.42
2023-02-24T02:52:40.724Z,97883.94
2023-02-24T02:55:44.804Z,97881.11
2023-02-24T02:58:46.139Z,97878.10
2023-02-24T03:01:46.729Z,97876.98
2023-02-24T03:04:43.562Z,97873.04
2023-02-24T03:07:42.834Z,97868.45
2023-02-24T03:10:37.672Z,97867.14
2023-02-24T03:13:36.867Z,97862.52
2023-02-24T03:16:31.764Z,97865.48
2023-02-24T03:19:39.093Z,97858.17
2023-02-24T03:22:41.258Z,97860.42
2023-02-24T03:25:46.811Z,97856.14
2023-02-24T03:29:06.221Z,97853.98
2023-02-24T03:32:33.606Z,97854.98
2023-02-24T03:35:34.306Z,97852.05
2023-02-24T03:38:30.598Z,97847.29
2023-02-24T03:41:24.965Z,97847.46
2023-02-24T03:44:19.058Z,97845.80
2023-02-24T03:47:14.085Z,97842.08
2023-02-24T03:50:14.337Z,97841.13
2023-02-24T03:53:32.045Z,97835.44
2023-02-24T03:56:40.894Z,97832.40
2023-02-24T03:59:52.885Z,97826.68
2023-02-24T04:02:52.162Z,97824.70
2023-02-24T04:05:54.907Z,97820.11
2023-02-24T04:08:55.326Z,97823.53
2023-02-24T04:11:58.188Z,97819.77
2023-02-24T04:14:59.465Z,97814.14
2023-02-24T04:18:05.385Z,97809.91
2023-02-24T04:21:08.420Z,97802.67
2023-02-24T04:24:15.812Z,97798.71
2023-02-24T04:27:16.604Z,97795.70
2023-02-24T04:30:14.649Z,97790.16
2023-02-24T04:33:10.109Z,97785.40
2023-02-24T04:36:06.077Z,97779.06
2023-02-24T04:39:00.154Z,97777.27
2023-02-24T04:41:54.813Z,97769.65
2023-02-24T04:44:50.188Z,97772.27
2023-02-24T04:47:46.391Z,97765.98
2023-02-24T04:50:43.037Z,97757.09
2023-02-24T04:53:39.504Z,97757.05
2023-02-24T04:56:34.360Z,97754.27
2023-02-24T04:59:29.574Z,97747.69
2023-02-24T05:02:23.817Z,97742.80
2023-02-24T05:05:25.689Z,97736.57
2023-02-24T05:08:21.362Z,97731.77
2023-02-24T05:11:04.709Z,97729.10
2023-02-24T05:14:01.325Z,97726.70
2023-02-24T05:17:00.759Z,97722.23
2023-02-24T05:20:03.799Z,97722.29
2023-02-24T05:22:59.054Z,97713.79
2023-02-24T05:25:55.218Z,97710.79
2023-02-24T05:28:52.496Z,97709.12
2023-02-24T05:31:47.680Z,97703.90
2023-02-24T05:34:42.804Z,97705.64
2023-02-24T05:37:43.070Z,97706.98
2023-02-24T05:40:46.114Z,97703.86
2023-02-24T05:43:41.659Z,97706.45
2023-02-24T05:46:38.740Z,97707.34
2023-02-24T05:49:35.778Z,97705.91
2023-02-24T05:52:30.261Z,97701.58
2023-02-24T05:55:24.320Z,97698.02
2023-02-24T05:58:18.932Z,97702.52
2023-02-24T06:01:19.000Z,97698.40
2023-02-24T06:04:21.058Z,97687.58
2023-02-24T06:07:19.810Z,97688.67
2023-02-24T06:10:16.009Z,97682.97
2023-02-24T06:13:13.204Z,97683.46
2023-02-24T06:16:12.840Z,97683.76
2023-02-24T06:19:08.566Z,97685.41
2023-02-24T06:22:12.868Z,97686.73
2023-02-24T06:25:08.698Z,97683.59
2023-02-24T06:28:02.810Z,97686.73
2023-02-24T06:30:57.213Z,97689.67
2023-02-24T06:33:53.136Z,97690.63
2023-02-24T06:36:49.158Z,97689.61
2023-02-24T06:39:44.073Z,97693.85
2023-02-24T06:42:39.275Z,97689.15
2023-02-24T06:45:33.497Z,97687.23
2023-02-24T06:48:28.241Z,97686.17
2023-02-24T06:51:24.614Z,97688.36
2023-02-24T06:54:19.177Z,97688.35
2023-02-24T06:57:17.851Z,97685.92
2023-02-24T07:00:18.166Z,97687.06
2023-02-24T07:03:18.069Z,97682.58
2023-02-24T07:06:20.424Z,97679.34
2023-02-24T07:09:17.105Z,97677.95
2023-02-24T07:12:12.759Z,97676.67
2023-02-24T07:15:08.436Z,97678.73
2023-02-24T07:18:03.138Z,97676.58
2023-02-24T07:21:05.435Z,97671.73
2023-02-24T07:24:00.211Z,97671.96
2023-02-24T07:27:04.077Z,97668.69
2023-02-24T07:29:59.216Z,97665.66
2023-02-24T07:32:55.463Z,97668.31
2023-02-24T07:35:54.071Z,97668.15
2023-02-24T07:38:48.536Z,97664.84
2023-02-24T07:41:46.599Z,97660.73
2023-02-24T07:44:40.924Z,97662.10
2023-02-24T07:47:36.575Z,97655.83
2023-02-24T07:50:32.776Z,97651.41
2023-02-24T07:53:27.879Z,97648.00
2023-02-24T07:56:27.082Z,97646.95
2023-02-24T07:59:22.281Z,97637.86
2023-02-24T08:02:18.604Z,97633.92
2023-02-24T08:05:14.875Z,97633.70
2023-02-24T08:08:09.448Z,97629.54
2023-02-24T08:11:04.180Z,97628.84
2023-02-24T08:13:59.209Z,97626.68
2023-02-24T08:16:59.397Z,97625.01
2023-02-24T08:20:15.464Z,97623.91
2023-02-24T08:23:10.980Z,97620.09
2023-02-24T08:26:12.608Z,97619.72
2023-02-24T08:29:07.649Z,97616.05
2023-02-24T08:32:24.467Z,97614.60
2023-02-24T08:35:23.218Z,97611.38
2023-02-24T08:38:20.682Z,97606.99
2023-02-24T08:41:21.474Z,97605.98
2023-02-24T08:44:20.546Z,97605.69
2023-02-24T08:47:22.125Z,97598.27
2023-02-24T08:50:16.700Z,97595.20
2023-02-24T08:53:10.684Z,97593.43
2023-02-24T08:56:09.576Z,97592.05
2023-02-24T08:59:06.386Z,97593.61
2023-02-24T09:02:18.398Z,97591.60
2023-02-24T09:05:14.696Z,97587.77
2023-02-24T09:08:08.881Z,97584.02
2023-02-24T09:11:07.804Z,97580.38
2023-02-24T09:14:01.717Z,97578.66
2023-02-24T09:17:06.986Z,97577.39
2023-02-24T09:20:18.740Z,97574.52
2023-02-24T09:23:20.515Z,97575.70
2023-02-24T09:26:14.354Z,97575.22
2023-02-24T09:29:28.469Z,97572.81
2023-02-24T09:32:22.484Z,97571.41
2023-02-24T09:35:26.026Z,97568.19
2023-02-24T09:38:42.467Z,97566.58
2023-02-24T09:41:56.898Z,97568.20
2023-02-24T09:44:57.839Z,97565.68
2023-02-24T09:47:57.261Z,97557.29
2023-02-24T09:51:05.196Z,97557.27
2023-02-24T09:54:01.962Z,97549.65
2023-02-24T09:57:09.211Z,97549.41
2023-02-24T10:00:25.762Z,97547.12
2023-02-24T10:03:42.129Z,97545.50
2023-02-24T10:06:44.422Z,97544.36
2023-02-24T10:09:43.941Z,97535.35
2023-02-24T10:12:40.423Z,97529.44
2023-02-24T10:15:59.670Z,97524.14
2023-02-24T10:19:15.091Z,97524.13
2023-02-24T10:22:30.143Z,97523.50
2023-02-24T10:25:53.811Z,97516.00
2023-02-24T10:28:57.236Z,97503.99
2023-02-24T10:31:58.105Z,97496.96
2023-02-24T10:34:52.553Z,97494.18
2023-02-24T10:37:46.688Z,97490.14
2023-02-24T10:40:56.957Z,97483.04
2023-02-24T10:44:00.056Z,97480.58
2023-02-24T10:47:17.804Z,97476.31
2023-02-24T10:50:29.823Z,97467.23
2023-02-24T10:53:34.867Z,97462.77
2023-02-24T10:56:26.838Z,97456.94
2023-02-24T10:59:41.267Z,97448.23
2023-02-24T11:02:56.701Z,97430.85
2023-02-24T11:06:08.294Z,97414.88
2023-02-24T11:09:32.059Z,97397.54
2023-02-24T11:12:45.109Z,97401.29
2023-02-24T11:16:14.631Z,97409.15
2023-02-24T11:19:12.014Z,97402.08
2023-02-24T11:22:08.856Z,97401.69
2023-02-24T11:25:08.180Z,97396.70
2023-02-24T11:28:03.023Z,97395.66
2023-02-24T11:31:06.132Z,97386.80
2023-02-24T11:34:08.616Z,97389.35
2023-02-24T11:37:16.162Z,97386.96
2023-02-24T11:40:18.904Z,97377.48
2023-02-24T11:43:20.625Z,97374.78
2023-02-24T11:46:22.317Z,97368.90
2023-02-24T11:49:31.351Z,97353.73
2023-02-24T11:52:32.277Z,97340.31
2023-02-24T11:55:50.837Z,97342.63
2023-02-24T11:58:51.712Z,97334.72
2023-02-24T12:01:53.409Z,97330.95
2023-02-24T12:04:59.906Z,97332.75
2023-02-24T12:07:58.745Z,97323.36
2023-02-24T12:10:59.624Z,97323.71
2023-02-24T12:14:06.923Z,97317.47
2023-02-24T12:17:14.104Z,97319.52
2023-02-24T12:20:20.060Z,97313.81
2023-02-24T12:23:23.282Z,97316.88
2023-02-24T12:26:24.571Z,97315.85
2023-02-24T12:30:06.256Z,97303.71
2023-02-24T12:33:18.928Z,97304.04
2023-02-24T12:36:31.057Z,97303.09
2023-02-24T12:39:50.560Z,97300.39
2023-02-24T12:43:11.721Z,97293.56
2023-02-24T12:46:18.485Z,97291.67
2023-02-24T12:49:33.880Z,97280.95
2023-02-24T12:52:57.003Z,97275.78
2023-02-24T12:56:03.280Z,97270.72
2023-02-24T12:59:02.441Z,97266.05
2023-02-24T13:02:06.484Z,97262.02
2023-02-24T13:05:10.372Z,97260.08
2023-02-24T13:08:22.842Z,97258.11
2023-02-24T13:11:27.857Z,97254.84
2023-02-24T13:14:31.719Z,97249.77
2023-02-24T13:17:27.996Z,97242.65
2023-02-24T13:20:35.310Z,97243.02
2023-02-24T13:23:29.269Z,97236.27
2023-02-24T13:26:29.271Z,97227.48
2023-02-24T13:29:23.698Z,97228.83
2023-02-24T13:32:37.191Z,97229.67
2023-02-24T13:35:39.196Z,97222.00
2023-02-24T13:39:21.133Z,97220.13
2023-02-24T13:42:28.256Z,97214.69
2023-02-24T13:45:24.631Z,97209.46
2023-02-24T13:49:06.625Z,97199.98
2023-02-24T13:52:09.044Z,97200.36
2023-02-24T13:55:24.133Z,97198.02
2023-02-24T13:58:38.944Z,97192.56
2023-02-24T14:01:49.015Z,97183.58
2023-02-24T14:04:52.421Z,97180.73
2023-02-24T14:07:51.248Z,97180.70
2023-02-24T14:10:53.313Z,97182.04
2023-02-24T14:13:51.706Z,97181.70
2023-02-24T14:16:49.932Z,97178.07
2023-02-24T14:19:43.774Z,97174.42
2023-02-24T14:22:44.154Z,97172.99
2023-02-24T14:25:42.237Z,97161.52
2023-02-24T14:28:39.478Z,97162.67
2023-02-24T14:31:33.364Z,97154.39
2023-02-24T14:34:29.639Z,97162.50
2023-02-24T14:37:26.343Z,97153.11
2023-02-24T14:40:22.219Z,97149.46
2023-02-24T14:43:18.841Z,97142.67
2023-02-24T14:46:12.670Z,97136.50
2023-02-24T14:49:06.487Z,97137.45
2023-02-24T14:52:05.868Z,97132.81
2023-02-24T14:55:03.835Z,97120.44
2023-02-24T14:58:23.645Z,97116.69
2023-02-24T15:01:30.730Z,97106.38
2023-02-24T15:04:36.829Z,97106.98
2023-02-24T15:07:53.288Z,97096.81
2023-02-24T15:10:49.255Z,97094.29
2023-02-24T15:13:48.459Z,97086.87
2023-02-24T15:16:47.009Z,97083.77
2023-02-24T15:19:46.469Z,97089.39
2023-02-24T15:22:53.688Z,97086.84
2023-02-24T15:25:49.775Z,97078.95
2023-02-24T15:28:43.994Z,97080.80
2023-02-24T15:31:37.996Z,97071.41
2023-02-24T15:34:36.443Z,97069.06
2023-02-24T15:37:51.572Z,97071.42
2023-02-24T15:41:06.762Z,97066.37
2023-02-24T15:44:00.813Z,97061.73
2023-02-24T15:46:54.850Z,97058.65
2023-02-24T15:49:48.717Z,97053.92
2023-02-24T15:52:43.198Z,97042.09
2023-02-24T15:55:37.268Z,97032.21
2023-02-24T15:58:33.008Z,97028.06
2023-02-24T16:01:28.297Z,97025.19
2023-02-24T16:04:23.490Z,97022.58
2023-02-24T16:07:26.468Z,97014.36
2023-02-24T16:10:25.251Z,97018.07
2023-02-24T16:13:23.983Z,97020.44
2023-02-24T16:16:19.279Z,97018.61
2023-02-24T16:19:16.415Z,97012.99
2023-02-24T16:22:12.165Z,97006.84
2023-02-24T16:25:07.204Z,96999.60
2023-02-24T16:28:02.034Z,96997.90
2023-02-24T16:30:56.242Z,97001.02
2023-02-24T16:33:54.891Z,96999.74
2023-02-24T16:36:49.539Z,96997.39
2023-02-24T16:39:43.519Z,96999.02
2023-02-24T16:42:37.728Z,96996.69
2023-02-24T16:45:32.253Z,96990.95
2023-02-24T16:48:29.519Z,96991.40
2023-02-24T16:51:24.366Z,96989.05
2023-02-24T16:54:21.876Z,96995.38
2023-02-24T16:57:16.455Z,96994.54
2023-02-24T17:00:15.826Z,96992.60
2023-02-24T17:03:18.969Z,96997.25
2023-02-24T17:06:12.976Z,96996.62
2023-02-24T17:09:15.602Z,96999.86
2023-02-24T17:12:12.504Z,96994.04
2023-02-24T17:15:09.935Z,96998.98
2023-02-24T17:18:04.016Z,97002.86
2023-02-24T17:20:58.240Z,97014.92
2023-02-24T17:23:52.781Z,97022.95
2023-02-24T17:26:47.077Z,97019.31
2023-02-24T17:29:40.802Z,97008.70
2023-02-24T17:32:34.909Z,96981.17
2023-02-24T17:35:31.688Z,96975.27
2023-02-24T17:38:26.280Z,96969.66
2023-02-24T17:41:26.824Z,96972.70
2023-02-24T17:44:20.956Z,96970.30
2023-02-24T17:47:14.962Z,96977.13
2023-02-24T17:50:12.192Z,96972.95
2023-02-24T17:53:06.842Z,96969.16
2023-02-24T17:56:08.914Z,96960.66
2023-02-24T17:59:02.820Z,96956.64
2023-02-24T18:01:56.780Z,96964.53
2023-02-24T18:04:55.323Z,96967.85
2023-02-24T18:07:49.685Z,96958.79
2023-02-24T18:10:43.695Z,96954.96
2023-02-24T18:13:37.783Z,96950.77
2023-02-24T18:16:32.129Z,96943.30
2023-02-24T18:19:26.994Z,96940.02
2023-02-24T18:22:21.254Z,96934.17
2023-02-24T18:25:15.488Z,96931.08
2023-02-24T18:28:09.870Z,96930.85
2023-02-24T18:31:10.315Z,96924.77
2023-02-24T18:34:04.660Z,96926.67
2023-02-24T18:36:58.545Z,96933.45
2023-02-24T18:39:53.312Z,96923.98
2023-02-24T18:42:49.549Z,96916.64
2023-02-24T18:45:43.437Z,96908.05
2023-02-24T18:48:38.122Z,96902.20
2023-02-24T18:51:32.508Z,96896.05
2023-02-24T18:54:26.686Z,96896.29
2023-02-24T18:57:21.003Z,96890.99
2023-02-24T19:00:17.913Z,96884.77
2023-02-24T19:03:12.263Z,96885.14
2023-02-24T19:06:06.285Z,96873.91
2023-02-24T19:09:06.074Z,96869.42
2023-02-24T19:12:01.568Z,96865.52
2023-02-24T19:14:56.542Z,96862.71
2023-02-24T19:17:50.569Z,96852.36
2023-02-24T19:20:47.066Z,96850.44
2023-02-24T19:23:41.532Z,96851.50
2023-02-24T19:26:35.582Z,96843.89
2023-02-24T19:29:29.595Z,96841.88
2023-02-24T19:32:23.501Z,96837.25
2023-02-24T19:35:17.398Z,96824.35
2023-02-24T19:38:13.610Z,96818.61
2023-02-24T19:41:07.541Z,96817.95
2023-02-24T19:44:01.968Z,96815.05
2023-02-24T19:46:55.790Z,96813.22
2023-02-24T19:49:49.562Z,96807.14
2023-02-24T19:52:44.182Z,96799.72
2023-02-24T19:55:38.200Z,96791.11
2023-02-24T19:58:32.149Z,96789.22
2023-02-24T20:01:28.355Z,96785.65
2023-02-24T20:04:23.263Z,96781.86
2023-02-24T20:07:17.145Z,96782.87
2023-02-24T20:10:13.143Z,96776.46
2023-02-24T20:13:07.171Z,96770.40
2023-02-24T20:16:11.669Z,96761.86
2023-02-24T20:19:06.189Z,96752.36
2023-02-24T20:22:00.430Z,96746.91
2023-02-24T20:24:54.569Z,96739.52
2023-02-24T20:27:48.348Z,96740.35
2023-02-24T20:30:42.547Z,96735.51
2023-02-24T20:33:36.615Z,96721.95
2023-02-24T20:36:31.485Z,96709.17
2023-02-24T20:39:25.664Z,96705.35
2023-02-24T20:42:19.674Z,96710.77
2023-02-24T20:45:14.512Z,96702.73
2023-02-24T20:48:08.946Z,96690.70
2023-02-24T20:51:08.681Z,96690.00
2023-02-24T20:54:02.777Z,96682.96
2023-02-24T20:56:56.861Z,96680.07
2023-02-24T21:00:02.726Z,96674.73
2023-02-24T21:02:59.743Z,96666.93
2023-02-24T21:06:01.566Z,96665.20
2023-02-24T21:09:02.979Z,96654.91
2023-02-24T21:11:57.319Z,96654.39
2023-02-24T21:14:51.143Z,96657.86
2023-02-24T21:17:45.173Z,96667.68
2023-02-24T21:20:38.941Z,96676.21
2023-02-24T21:23:33.004Z,96679.97
2023-02-24T21:26:29.164Z,96678.33
2023-02-24T21:29:23.048Z,96669.33
2023-02-24T21:32:17.001Z,96664.89
2023-02-24T21:35:11.904Z,96656.09
2023-02-24T21:38:05.722Z,96651.38
2023-02-24T21:41:02.943Z,96638.56
2023-02-24T21:44:01.406Z,96629.97
2023-02-24T21:46:56.030Z,96629.14
2023-02-24T21:49:51.150Z,96627.88
2023-02-24T21:52:46.810Z,96625.15
2023-02-24T21:55:40.737Z,96626.65
2023-02-24T21:58:35.392Z,96619.48
2023-02-24T22:01:32.301Z,96613.07
2023-02-24T22:04:28.154Z,96602.56
2023-02-24T22:07:22.104Z,96589.50
2023-02-24T22:10:18.457Z,96592.33
2023-02-24T22:13:12.190Z,96586.52
2023-02-24T22:16:10.352Z,96589.33
2023-02-24T22:19:04.572Z,96575.30
2023-02-24T22:22:01.013Z,96578.83
2023-02-24T22:24:54.927Z,96577.86
2023-02-24T22:27:48.624Z,96578.84
2023-02-24T22:30:42.650Z,96578.61
2023-02-24T22:33:40.880Z,96582.70
2023-02-24T22:36:37.730Z,96583.77
2023-02-24T22:39:31.536Z,96582.45
2023-02-24T22:42:26.055Z,96579.31
2023-02-24T22:45:19.965Z,96568.75
2023-02-24T22:48:14.534Z,96571.97
2023-02-24T22:51:11.406Z,96561.92
2023-02-24T22:54:05.493Z,96554.45
2023-02-24T22:57:00.148Z,96562.27
2023-02-24T22:59:53.904Z,96565.27
2023-02-24T23:02:47.712Z,96561.98
2023-02-24T23:05:41.831Z,96551.20
2023-02-24T23:08:39.138Z,96539.33
2023-02-24T23:11:35.925Z,96536.02
2023-02-24T23:14:30.515Z,96540.86
2023-02-24T23:17:24.397Z,96547.57
2023-02-24T23:20:18.632Z,96555.29
2023-02-24T23:23:13.768Z,96552.47
2023-02-24T23:26:08.388Z,96552.77
2023-02-24T23:29:03.042Z,96542.34
2023-02-24T23:31:57.382Z,96534.38
2023-02-24T23:34:54.420Z,96539.05
2023-02-24T23:37:48.340Z,96534.15
2023-02-24T23:40:50.845Z,96531.40
2023-02-24T23:43:33.346Z,96533.10
2023-02-24T23:46:27.203Z,96533.48
2023-02-24T23:49:20.926Z,96531.25
2023-02-24T23:52:14.776Z,96525.02
2023-02-24T23:55:11.551Z,96522.11
2023-02-24T23:58:05.656Z,96527.63
